Hesquiat — VXYW — position and weather

sailwx.info

Track history (hours):
 
Tides and Currents Weather Stations Pressure Air Temp Water Temp Dewpoint Dewpoint Depression Visibility Wind Speed Wind Dir Waves Ship Positions

Hesquiat

Last reported at 2014-Sep-16 17:16 UTC. Time now 2014-Sep-20 01:56 UTC.
Position N 49°07' W 123°11'.

Length 31 m; draft 3.3 m.

Type: Fishing. MMSI: 316005022.

Date/timePositionNaut miles runAvg speedWind from/ knotsBaromVisibWave heightAir tempDewpointWater temp
2014-Sep-16 17:16N 49°07' W 123°11'0 0.0
2014-Sep-16 16:33N 49°07' W 123°11'0 0.0
2014-Sep-15 23:28N 49°07' W 123°11'0 0.0
2014-Sep-15 22:33N 49°07' W 123°11'4 4.5
2014-Sep-15 21:33N 49°07' W 123°05'0 0.0
2014-Sep-15 20:34N 49°07' W 123°05'0 0.0
2014-Sep-15 19:33N 49°08' W 123°05'0 0.1
2014-Sep-15 18:33N 49°07' W 123°05'0 0.0
2014-Sep-15 17:33N 49°07' W 123°05'0 0.0
2014-Sep-15 16:33N 49°07' W 123°05'0 0.0
2014-Sep-15 15:33N 49°07' W 123°05'1 1.1
2014-Sep-15 14:33N 49°07' W 123°06'3 3.2
2014-Sep-15 13:33N 49°07' W 123°11'0 0.0
2014-Sep-15 12:33N 49°07' W 123°11'0 0.0
2014-Sep-15 11:33N 49°07' W 123°11'0 0.0
2014-Sep-15 10:33N 49°07' W 123°11'0 0.0
2014-Sep-15 09:33N 49°07' W 123°11'0 0.0
2014-Sep-15 08:33N 49°07' W 123°11'0 0.0
2014-Sep-15 07:33N 49°07' W 123°11'0 0.0
2014-Sep-15 06:33N 49°07' W 123°11'0 0.0
2014-Sep-15 05:33N 49°07' W 123°11'0 0.0
2014-Sep-15 04:33N 49°07' W 123°11'0 0.0
2014-Sep-15 03:33N 49°07' W 123°11'0 0.0
2014-Sep-15 02:33N 49°07' W 123°11'0 0.0
2014-Sep-15 01:33N 49°07' W 123°11'0 0.0
2014-Sep-15 00:33N 49°07' W 123°11'0 0.0
2014-Sep-14 23:33N 49°07' W 123°11'0 0.0
2014-Sep-14 22:34N 49°07' W 123°11'0 0.0
2014-Sep-14 21:34N 49°07' W 123°11'0 0.0
2014-Sep-14 20:33N 49°07' W 123°11'0 0.0
2014-Sep-14 19:34N 49°07' W 123°11'0 0.0
2014-Sep-14 18:33N 49°07' W 123°11'0 0.0
2014-Sep-14 17:34N 49°07' W 123°11'0 0.0
2014-Sep-14 16:34N 49°07' W 123°11'0 0.0
2014-Sep-14 15:34N 49°07' W 123°11'0 0.0
2014-Sep-14 14:33N 49°07' W 123°11'0 0.0
2014-Sep-14 13:33N 49°07' W 123°11'0 0.0
2014-Sep-14 12:34N 49°07' W 123°11'0 0.0
2014-Sep-14 11:34N 49°07' W 123°11'0 0.0
2014-Sep-14 10:33N 49°07' W 123°11'0 0.0
2014-Sep-14 09:34N 49°07' W 123°11'0 0.0
2014-Sep-14 08:34N 49°07' W 123°11'0 0.0
2014-Sep-14 07:33N 49°07' W 123°11'0 0.0
2014-Sep-14 06:34N 49°07' W 123°11'0 0.0
2014-Sep-14 05:34N 49°07' W 123°11'0 0.0
2014-Sep-14 04:33N 49°07' W 123°11'0 0.0
2014-Sep-14 03:33N 49°07' W 123°11'0 0.0
2014-Sep-14 02:34N 49°07' W 123°11'0 0.0
2014-Sep-14 01:34N 49°07' W 123°11'0 0.0
2014-Sep-12 23:33N 49°07' W 123°11'0 0.4
2014-Sep-12 22:34N 49°07' W 123°11'4 4.3
2014-Sep-12 21:34N 49°07' W 123°05'0 0.0
2014-Sep-12 20:34N 49°07' W 123°05'0 0.0
2014-Sep-12 19:33N 49°07' W 123°05'0 0.0
2014-Sep-12 18:33N 49°07' W 123°05'5 4.6
2014-Sep-12 17:33N 49°07' W 123°12'0 0.4
2014-Sep-12 16:33N 49°07' W 123°11'0 0.0
2014-Sep-12 15:33N 49°07' W 123°11'0 0.0
2014-Sep-12 14:33N 49°07' W 123°11'0 0.0
2014-Sep-12 13:33N 49°07' W 123°11'0 0.0
2014-Sep-12 12:33N 49°07' W 123°11'0 0.0
2014-Sep-12 11:33N 49°07' W 123°11'0 0.0
2014-Sep-12 10:33N 49°07' W 123°11'0 0.0
2014-Sep-12 09:33N 49°07' W 123°11'0 0.0
2014-Sep-12 08:33N 49°07' W 123°11'0 0.0
2014-Sep-12 07:33N 49°07' W 123°11'0 0.0
2014-Sep-12 06:33N 49°07' W 123°11'0 0.0
2014-Sep-12 05:34N 49°07' W 123°11'0 0.0
2014-Sep-12 04:34N 49°07' W 123°11'0 0.0
2014-Sep-12 03:34N 49°07' W 123°11'0 0.0
2014-Sep-12 02:33N 49°07' W 123°11'0 0.0
2014-Sep-12 01:33N 49°07' W 123°11'0 0.0
2014-Sep-12 00:33N 49°07' W 123°11'0 0.0
2014-Sep-11 23:33N 49°07' W 123°11'0 0.0
2014-Sep-11 22:33N 49°07' W 123°11'0 0.0
2014-Sep-11 21:33N 49°07' W 123°11'0 0.0
2014-Sep-11 20:33N 49°07' W 123°11'0 0.0
2014-Sep-11 19:33N 49°07' W 123°11'0 0.0
2014-Sep-11 18:33N 49°07' W 123°11'0 0.0
2014-Sep-11 17:33N 49°07' W 123°11'0 0.0
2014-Sep-11 16:33N 49°07' W 123°11'0 0.0
2014-Sep-11 15:33N 49°07' W 123°11'0 0.3
2014-Sep-11 14:33N 49°07' W 123°11'4 4.4
2014-Sep-11 13:33N 49°07' W 123°05'4 4.3
2014-Sep-11 12:33N 49°07' W 123°11'0 0.4
2014-Sep-11 11:33N 49°07' W 123°11'0 0.0
2014-Sep-11 10:33N 49°07' W 123°11'0 0.0
2014-Sep-11 09:33N 49°07' W 123°11'0 0.0
2014-Sep-11 08:33N 49°07' W 123°11'0 0.0
2014-Sep-11 07:33N 49°07' W 123°11'0 0.0
2014-Sep-11 06:33N 49°07' W 123°11'0 0.0
2014-Sep-11 05:33N 49°07' W 123°11'0 0.0
2014-Sep-11 04:33N 49°07' W 123°11'0 0.0
2014-Sep-11 03:33N 49°07' W 123°11'0 0.0
2014-Sep-11 02:33N 49°07' W 123°11'0 0.0
2014-Sep-11 01:33N 49°07' W 123°11'0 0.0
2014-Sep-11 00:33N 49°07' W 123°11'0 0.0
2014-Sep-10 23:33N 49°07' W 123°11'0 0.0
2014-Sep-10 22:33N 49°07' W 123°11'0 0.0
2014-Sep-10 21:33N 49°07' W 123°11'0 0.0
2014-Sep-10 20:33N 49°07' W 123°11'0 0.0
2014-Sep-10 17:07N 49°07' W 123°11'0 0.0
2014-Sep-10 15:17N 49°07' W 123°11'0 0.0
2014-Sep-10 14:33N 49°07' W 123°11'0 0.0
2014-Sep-10 13:33N 49°07' W 123°11'0 0.0
2014-Sep-10 12:33N 49°07' W 123°11'0 0.0
2014-Sep-10 11:33N 49°07' W 123°11'0 0.0
2014-Sep-10 10:33N 49°07' W 123°11'0 0.0
2014-Sep-10 09:33N 49°07' W 123°11'0 0.0
2014-Sep-10 08:33N 49°07' W 123°11'0 0.0
2014-Sep-10 07:33N 49°07' W 123°11'0 0.0
2014-Sep-10 06:33N 49°07' W 123°11'0 0.0
2014-Sep-10 05:33N 49°07' W 123°11'0 0.0
2014-Sep-10 04:33N 49°07' W 123°11'0 0.0
2014-Sep-10 03:33N 49°07' W 123°11'0 0.0
2014-Sep-10 02:33N 49°07' W 123°11'0 0.0
2014-Sep-10 01:33N 49°07' W 123°11'0 0.0
2014-Sep-10 00:33N 49°07' W 123°11'0 0.1
2014-Sep-09 22:33N 49°07' W 123°12'5 4.6
2014-Sep-09 21:33N 49°07' W 123°05'0 0.0
2014-Sep-09 20:33N 49°07' W 123°05'0 0.0
2014-Sep-09 19:29N 49°07' W 123°05'2 2.0
2014-Sep-09 18:33N 49°07' W 123°07'3 2.6
2014-Sep-09 17:33N 49°07' W 123°11'0 0.0
2014-Sep-09 16:33N 49°07' W 123°11'0 0.0
2014-Sep-09 15:33N 49°07' W 123°11'0 0.0
2014-Sep-09 14:33N 49°07' W 123°11'0 0.0
2014-Sep-09 13:33N 49°07' W 123°11'0 0.0
2014-Sep-09 12:33N 49°07' W 123°11'0 0.0
2014-Sep-09 08:14N 49°07' W 123°11'0 0.0
2014-Sep-09 07:33N 49°07' W 123°11'0 0.0
2014-Sep-09 06:33N 49°07' W 123°11'0 0.0
2014-Sep-09 05:33N 49°07' W 123°11'0 0.0
2014-Sep-09 04:33N 49°07' W 123°11'0 0.0
2014-Sep-09 03:33N 49°07' W 123°11'0 0.0
2014-Sep-09 02:33N 49°07' W 123°11'0 0.0
2014-Sep-09 01:33N 49°07' W 123°11'0 0.0
2014-Sep-09 00:33N 49°07' W 123°11'0 0.0
2014-Sep-08 23:33N 49°07' W 123°11'0 0.0
2014-Sep-08 22:33N 49°07' W 123°11'0 0.0
2014-Sep-08 21:33N 49°07' W 123°11'0 0.0
2014-Sep-08 20:33N 49°07' W 123°11'0 0.0
2014-Sep-08 19:33N 49°07' W 123°11'0 0.0
2014-Sep-08 18:33N 49°07' W 123°11'0 0.0
2014-Sep-08 17:33N 49°07' W 123°11'0 0.0
2014-Sep-08 16:33N 49°07' W 123°11'0 0.2
2014-Sep-08 15:33N 49°07' W 123°11'4 4.2
2014-Sep-08 14:33N 49°07' W 123°05'0 0.3
2014-Sep-08 13:33N 49°07' W 123°05'4 4.4
2014-Sep-08 12:33N 49°07' W 123°11'0 0.0
2014-Sep-08 11:33N 49°07' W 123°11'0 0.0
2014-Sep-08 10:33N 49°07' W 123°11'0 0.0
2014-Sep-08 09:33N 49°07' W 123°11'0 0.0
2014-Sep-08 08:33N 49°07' W 123°11'0 0.0
2014-Sep-08 07:33N 49°07' W 123°11'0 0.0
2014-Sep-08 06:33N 49°07' W 123°11'0 0.0
2014-Sep-08 05:33N 49°07' W 123°11'0 0.0
2014-Sep-08 04:33N 49°07' W 123°11'0 0.0
2014-Sep-08 03:33N 49°07' W 123°11'0 0.0
2014-Sep-08 02:33N 49°07' W 123°11'0 0.0
2014-Sep-08 01:33N 49°07' W 123°11'0 0.0
2014-Sep-08 00:33N 49°07' W 123°11'  
Track history (hours):
 
Tides and Currents Weather Stations Pressure Air Temp Water Temp Dewpoint Dewpoint Depression Visibility Wind Speed Wind Dir Waves Ship Positions

Hesquiat

Last reported at 2014-Sep-16 17:16 UTC. Time now 2014-Sep-20 01:56 UTC.
Position N 49°07' W 123°11'.

Length 31 m; draft 3.3 m.

Type: Fishing. MMSI: 316005022.

Date/timePositionNaut miles runAvg speedWind from/ knotsBaromVisibWave heightAir tempDewpointWater temp
2014-Sep-16 17:16N 49°07' W 123°11'0 0.0
2014-Sep-16 16:33N 49°07' W 123°11'0 0.0
2014-Sep-15 23:28N 49°07' W 123°11'0 0.0
2014-Sep-15 22:33N 49°07' W 123°11'4 4.5
2014-Sep-15 21:33N 49°07' W 123°05'0 0.0
2014-Sep-15 20:34N 49°07' W 123°05'0 0.0
2014-Sep-15 19:33N 49°08' W 123°05'0 0.1
2014-Sep-15 18:33N 49°07' W 123°05'0 0.0
2014-Sep-15 17:33N 49°07' W 123°05'0 0.0
2014-Sep-15 16:33N 49°07' W 123°05'0 0.0
2014-Sep-15 15:33N 49°07' W 123°05'1 1.1
2014-Sep-15 14:33N 49°07' W 123°06'3 3.2
2014-Sep-15 13:33N 49°07' W 123°11'0 0.0
2014-Sep-15 12:33N 49°07' W 123°11'0 0.0
2014-Sep-15 11:33N 49°07' W 123°11'0 0.0
2014-Sep-15 10:33N 49°07' W 123°11'0 0.0
2014-Sep-15 09:33N 49°07' W 123°11'0 0.0
2014-Sep-15 08:33N 49°07' W 123°11'0 0.0
2014-Sep-15 07:33N 49°07' W 123°11'0 0.0
2014-Sep-15 06:33N 49°07' W 123°11'0 0.0
2014-Sep-15 05:33N 49°07' W 123°11'0 0.0
2014-Sep-15 04:33N 49°07' W 123°11'0 0.0
2014-Sep-15 03:33N 49°07' W 123°11'0 0.0
2014-Sep-15 02:33N 49°07' W 123°11'0 0.0
2014-Sep-15 01:33N 49°07' W 123°11'0 0.0
2014-Sep-15 00:33N 49°07' W 123°11'0 0.0
2014-Sep-14 23:33N 49°07' W 123°11'0 0.0
2014-Sep-14 22:34N 49°07' W 123°11'0 0.0
2014-Sep-14 21:34N 49°07' W 123°11'0 0.0
2014-Sep-14 20:33N 49°07' W 123°11'0 0.0
2014-Sep-14 19:34N 49°07' W 123°11'0 0.0
2014-Sep-14 18:33N 49°07' W 123°11'0 0.0
2014-Sep-14 17:34N 49°07' W 123°11'0 0.0
2014-Sep-14 16:34N 49°07' W 123°11'0 0.0
2014-Sep-14 15:34N 49°07' W 123°11'0 0.0
2014-Sep-14 14:33N 49°07' W 123°11'0 0.0
2014-Sep-14 13:33N 49°07' W 123°11'0 0.0
2014-Sep-14 12:34N 49°07' W 123°11'0 0.0
2014-Sep-14 11:34N 49°07' W 123°11'0 0.0
2014-Sep-14 10:33N 49°07' W 123°11'0 0.0
2014-Sep-14 09:34N 49°07' W 123°11'0 0.0
2014-Sep-14 08:34N 49°07' W 123°11'0 0.0
2014-Sep-14 07:33N 49°07' W 123°11'0 0.0
2014-Sep-14 06:34N 49°07' W 123°11'0 0.0
2014-Sep-14 05:34N 49°07' W 123°11'0 0.0
2014-Sep-14 04:33N 49°07' W 123°11'0 0.0
2014-Sep-14 03:33N 49°07' W 123°11'0 0.0
2014-Sep-14 02:34N 49°07' W 123°11'0 0.0
2014-Sep-14 01:34N 49°07' W 123°11'0 0.0
2014-Sep-12 23:33N 49°07' W 123°11'0 0.4
2014-Sep-12 22:34N 49°07' W 123°11'4 4.3
2014-Sep-12 21:34N 49°07' W 123°05'0 0.0
2014-Sep-12 20:34N 49°07' W 123°05'0 0.0
2014-Sep-12 19:33N 49°07' W 123°05'0 0.0
2014-Sep-12 18:33N 49°07' W 123°05'5 4.6
2014-Sep-12 17:33N 49°07' W 123°12'0 0.4
2014-Sep-12 16:33N 49°07' W 123°11'0 0.0
2014-Sep-12 15:33N 49°07' W 123°11'0 0.0
2014-Sep-12 14:33N 49°07' W 123°11'0 0.0
2014-Sep-12 13:33N 49°07' W 123°11'0 0.0
2014-Sep-12 12:33N 49°07' W 123°11'0 0.0
2014-Sep-12 11:33N 49°07' W 123°11'0 0.0
2014-Sep-12 10:33N 49°07' W 123°11'0 0.0
2014-Sep-12 09:33N 49°07' W 123°11'0 0.0
2014-Sep-12 08:33N 49°07' W 123°11'0 0.0
2014-Sep-12 07:33N 49°07' W 123°11'0 0.0
2014-Sep-12 06:33N 49°07' W 123°11'0 0.0
2014-Sep-12 05:34N 49°07' W 123°11'0 0.0
2014-Sep-12 04:34N 49°07' W 123°11'0 0.0
2014-Sep-12 03:34N 49°07' W 123°11'0 0.0
2014-Sep-12 02:33N 49°07' W 123°11'0 0.0
2014-Sep-12 01:33N 49°07' W 123°11'0 0.0
2014-Sep-12 00:33N 49°07' W 123°11'0 0.0
2014-Sep-11 23:33N 49°07' W 123°11'0 0.0
2014-Sep-11 22:33N 49°07' W 123°11'0 0.0
2014-Sep-11 21:33N 49°07' W 123°11'0 0.0
2014-Sep-11 20:33N 49°07' W 123°11'0 0.0
2014-Sep-11 19:33N 49°07' W 123°11'0 0.0
2014-Sep-11 18:33N 49°07' W 123°11'0 0.0
2014-Sep-11 17:33N 49°07' W 123°11'0 0.0
2014-Sep-11 16:33N 49°07' W 123°11'0 0.0
2014-Sep-11 15:33N 49°07' W 123°11'0 0.3
2014-Sep-11 14:33N 49°07' W 123°11'4 4.4
2014-Sep-11 13:33N 49°07' W 123°05'4 4.3
2014-Sep-11 12:33N 49°07' W 123°11'0 0.4
2014-Sep-11 11:33N 49°07' W 123°11'0 0.0
2014-Sep-11 10:33N 49°07' W 123°11'0 0.0
2014-Sep-11 09:33N 49°07' W 123°11'0 0.0
2014-Sep-11 08:33N 49°07' W 123°11'0 0.0
2014-Sep-11 07:33N 49°07' W 123°11'0 0.0
2014-Sep-11 06:33N 49°07' W 123°11'0 0.0
2014-Sep-11 05:33N 49°07' W 123°11'0 0.0
2014-Sep-11 04:33N 49°07' W 123°11'0 0.0
2014-Sep-11 03:33N 49°07' W 123°11'0 0.0
2014-Sep-11 02:33N 49°07' W 123°11'0 0.0
2014-Sep-11 01:33N 49°07' W 123°11'0 0.0
2014-Sep-11 00:33N 49°07' W 123°11'0 0.0
2014-Sep-10 23:33N 49°07' W 123°11'0 0.0
2014-Sep-10 22:33N 49°07' W 123°11'0 0.0
2014-Sep-10 21:33N 49°07' W 123°11'0 0.0
2014-Sep-10 20:33N 49°07' W 123°11'0 0.0
2014-Sep-10 17:07N 49°07' W 123°11'0 0.0
2014-Sep-10 15:17N 49°07' W 123°11'0 0.0
2014-Sep-10 14:33N 49°07' W 123°11'0 0.0
2014-Sep-10 13:33N 49°07' W 123°11'0 0.0
2014-Sep-10 12:33N 49°07' W 123°11'0 0.0
2014-Sep-10 11:33N 49°07' W 123°11'0 0.0
2014-Sep-10 10:33N 49°07' W 123°11'0 0.0
2014-Sep-10 09:33N 49°07' W 123°11'0 0.0
2014-Sep-10 08:33N 49°07' W 123°11'0 0.0
2014-Sep-10 07:33N 49°07' W 123°11'0 0.0
2014-Sep-10 06:33N 49°07' W 123°11'0 0.0
2014-Sep-10 05:33N 49°07' W 123°11'0 0.0
2014-Sep-10 04:33N 49°07' W 123°11'0 0.0
2014-Sep-10 03:33N 49°07' W 123°11'0 0.0
2014-Sep-10 02:33N 49°07' W 123°11'0 0.0
2014-Sep-10 01:33N 49°07' W 123°11'0 0.0
2014-Sep-10 00:33N 49°07' W 123°11'0 0.1
2014-Sep-09 22:33N 49°07' W 123°12'5 4.6
2014-Sep-09 21:33N 49°07' W 123°05'0 0.0
2014-Sep-09 20:33N 49°07' W 123°05'0 0.0
2014-Sep-09 19:29N 49°07' W 123°05'2 2.0
2014-Sep-09 18:33N 49°07' W 123°07'3 2.6
2014-Sep-09 17:33N 49°07' W 123°11'0 0.0
2014-Sep-09 16:33N 49°07' W 123°11'0 0.0
2014-Sep-09 15:33N 49°07' W 123°11'0 0.0
2014-Sep-09 14:33N 49°07' W 123°11'0 0.0
2014-Sep-09 13:33N 49°07' W 123°11'0 0.0
2014-Sep-09 12:33N 49°07' W 123°11'0 0.0
2014-Sep-09 08:14N 49°07' W 123°11'0 0.0
2014-Sep-09 07:33N 49°07' W 123°11'0 0.0
2014-Sep-09 06:33N 49°07' W 123°11'0 0.0
2014-Sep-09 05:33N 49°07' W 123°11'0 0.0
2014-Sep-09 04:33N 49°07' W 123°11'0 0.0
2014-Sep-09 03:33N 49°07' W 123°11'0 0.0
2014-Sep-09 02:33N 49°07' W 123°11'0 0.0
2014-Sep-09 01:33N 49°07' W 123°11'0 0.0
2014-Sep-09 00:33N 49°07' W 123°11'0 0.0
2014-Sep-08 23:33N 49°07' W 123°11'0 0.0
2014-Sep-08 22:33N 49°07' W 123°11'0 0.0
2014-Sep-08 21:33N 49°07' W 123°11'0 0.0
2014-Sep-08 20:33N 49°07' W 123°11'0 0.0
2014-Sep-08 19:33N 49°07' W 123°11'0 0.0
2014-Sep-08 18:33N 49°07' W 123°11'0 0.0
2014-Sep-08 17:33N 49°07' W 123°11'0 0.0
2014-Sep-08 16:33N 49°07' W 123°11'0 0.2
2014-Sep-08 15:33N 49°07' W 123°11'4 4.2
2014-Sep-08 14:33N 49°07' W 123°05'0 0.3
2014-Sep-08 13:33N 49°07' W 123°05'4 4.4
2014-Sep-08 12:33N 49°07' W 123°11'0 0.0
2014-Sep-08 11:33N 49°07' W 123°11'0 0.0
2014-Sep-08 10:33N 49°07' W 123°11'0 0.0
2014-Sep-08 09:33N 49°07' W 123°11'0 0.0
2014-Sep-08 08:33N 49°07' W 123°11'0 0.0
2014-Sep-08 07:33N 49°07' W 123°11'0 0.0
2014-Sep-08 06:33N 49°07' W 123°11'0 0.0
2014-Sep-08 05:33N 49°07' W 123°11'0 0.0
2014-Sep-08 04:33N 49°07' W 123°11'0 0.0
2014-Sep-08 03:33N 49°07' W 123°11'0 0.0
2014-Sep-08 02:33N 49°07' W 123°11'0 0.0
2014-Sep-08 01:33N 49°07' W 123°11'0 0.0
2014-Sep-08 00:33N 49°07' W 123°11'  

Dump ship's entire track history